createdAt,value
2018-08-20T00:02:37.679Z,101295.81
2018-08-20T00:05:08.754Z,101299.83
2018-08-20T00:07:38.856Z,101292.03
2018-08-20T00:10:11.244Z,101292.38
2018-08-20T00:12:41.370Z,101299.83
2018-08-20T00:15:11.596Z,101296.06
2018-08-20T00:17:41.722Z,101296.06
2018-08-20T00:20:12.301Z,101297.88
2018-08-20T00:22:42.606Z,101299.98
2018-08-20T00:25:17.453Z,101309.48
2018-08-20T00:27:48.268Z,101313.85
2018-08-20T00:30:19.473Z,101301.78
2018-08-20T00:32:50.291Z,101296.78
2018-08-20T00:35:21.199Z,101296.05
2018-08-20T00:37:52.701Z,101296.93
2018-08-20T00:40:23.064Z,101297.17
2018-08-20T00:42:53.118Z,101294.94
2018-08-20T00:45:23.273Z,101295.19
2018-08-20T00:47:53.377Z,101291.37
2018-08-20T00:50:23.477Z,101287.99
2018-08-20T00:52:53.625Z,101288.58
2018-08-20T00:55:23.748Z,101285.80
2018-08-20T00:57:53.837Z,101287.75
2018-08-20T01:00:23.947Z,101285.41
2018-08-20T01:02:54.014Z,101283.94
2018-08-20T01:05:24.137Z,101283.83
2018-08-20T01:07:54.237Z,101294.56
2018-08-20T01:10:24.388Z,101288.81
2018-08-20T01:12:54.497Z,101275.05
2018-08-20T01:15:24.590Z,101283.70
2018-08-20T01:17:54.698Z,101279.78
2018-08-20T01:20:24.881Z,101277.59
2018-08-20T01:22:55.030Z,101285.25
2018-08-20T01:25:25.117Z,101283.95
2018-08-20T01:27:55.167Z,101278.69
2018-08-20T01:30:25.295Z,101279.56
2018-08-20T01:33:16.444Z,101277.45
2018-08-20T01:35:46.584Z,101282.43
2018-08-20T01:38:16.723Z,101279.40
2018-08-20T01:40:46.823Z,101279.64
2018-08-20T01:43:16.880Z,101278.45
2018-08-20T01:45:47.078Z,101283.17
2018-08-20T01:48:17.141Z,101275.52
2018-08-20T01:50:47.287Z,101274.04
2018-08-20T01:53:17.334Z,101269.41
2018-08-20T01:55:47.479Z,101272.34
2018-08-20T01:58:17.629Z,101269.06
2018-08-20T02:00:47.810Z,101270.27
2018-08-20T02:03:17.909Z,101270.27
2018-08-20T02:05:48.069Z,101265.39
2018-08-20T02:08:18.215Z,101272.30
2018-08-20T02:10:48.422Z,101275.87
2018-08-20T02:13:18.539Z,101272.31
2018-08-20T02:15:48.734Z,101268.63
2018-08-20T02:18:18.859Z,101270.31
2018-08-20T02:20:48.954Z,101270.96
2018-08-20T02:23:19.044Z,101260.09
2018-08-20T02:25:49.180Z,101260.69
2018-08-20T02:28:19.366Z,101260.34
2018-08-20T02:30:49.488Z,101260.34
2018-08-20T02:33:19.676Z,101260.20
2018-08-20T02:35:49.915Z,101266.78
2018-08-20T02:38:20.013Z,101266.09
2018-08-20T02:40:50.179Z,101259.99
2018-08-20T02:43:20.289Z,101260.44
2018-08-20T02:45:50.453Z,101256.81
2018-08-20T02:48:20.549Z,101258.00
2018-08-20T02:50:50.714Z,101251.06
2018-08-20T02:53:20.838Z,101259.35
2018-08-20T02:55:50.955Z,101258.74
2018-08-20T02:58:21.062Z,101260.53
2018-08-20T03:00:51.247Z,101261.42
2018-08-20T03:03:21.346Z,101252.81
2018-08-20T03:05:51.498Z,101259.35
2018-08-20T03:08:21.608Z,101258.77
2018-08-20T03:10:51.727Z,101258.66
2018-08-20T03:13:21.792Z,101258.31
2018-08-20T03:15:51.941Z,101259.52
2018-08-20T03:18:22.072Z,101260.86
2018-08-20T03:20:52.191Z,101254.30
2018-08-20T03:23:22.282Z,101260.95
2018-08-20T03:25:52.453Z,101263.86
2018-08-20T03:28:22.559Z,101266.45
2018-08-20T03:30:52.701Z,101261.58
2018-08-20T03:33:22.814Z,101270.56
2018-08-20T03:35:52.951Z,101270.36
2018-08-20T03:38:23.084Z,101267.79
2018-08-20T03:40:53.232Z,101274.68
2018-08-20T03:43:23.369Z,101273.23
2018-08-20T03:45:53.553Z,101276.66
2018-08-20T03:48:23.734Z,101273.33
2018-08-20T03:50:53.883Z,101270.63
2018-08-20T03:53:23.993Z,101275.73
2018-08-20T03:55:54.089Z,101273.91
2018-08-20T03:58:24.181Z,101263.20
2018-08-20T04:00:54.335Z,101258.45
2018-08-20T04:03:24.683Z,101258.23
2018-08-20T04:05:54.822Z,101262.95
2018-08-20T04:08:24.937Z,101262.77
2018-08-20T04:10:55.061Z,101265.14
2018-08-20T04:13:25.220Z,101266.03
2018-08-20T04:15:55.338Z,101264.34
2018-08-20T04:18:25.415Z,101265.97
2018-08-20T04:20:55.499Z,101267.80
2018-08-20T04:23:25.620Z,101264.88
2018-08-20T04:25:55.877Z,101268.04
2018-08-20T04:28:25.992Z,101265.88
2018-08-20T04:30:56.103Z,101273.92
2018-08-20T04:33:26.241Z,101267.61
2018-08-20T04:35:56.442Z,101267.14
2018-08-20T04:38:26.498Z,101263.63
2018-08-20T04:40:56.674Z,101265.35
2018-08-20T04:43:26.737Z,101263.27
2018-08-20T04:45:56.873Z,101268.77
2018-08-20T04:48:26.936Z,101263.28
2018-08-20T04:50:57.205Z,101263.91
2018-08-20T04:53:27.163Z,101265.21
2018-08-20T04:55:57.398Z,101261.95
2018-08-20T04:58:27.529Z,101268.53
2018-08-20T05:00:57.687Z,101267.15
2018-08-20T05:03:27.863Z,101266.63
2018-08-20T05:05:58.021Z,101276.11
2018-08-20T05:08:28.180Z,101277.49
2018-08-20T05:10:58.293Z,101273.97
2018-08-20T05:13:28.344Z,101284.55
2018-08-20T05:15:58.471Z,101280.13
2018-08-20T05:18:28.628Z,101282.94
2018-08-20T05:20:58.767Z,101285.95
2018-08-20T05:23:28.850Z,101289.12
2018-08-20T05:25:59.040Z,101295.48
2018-08-20T05:28:29.160Z,101286.70
2018-08-20T05:30:59.398Z,101290.30
2018-08-20T05:33:29.634Z,101294.30
2018-08-20T05:35:59.835Z,101294.73
2018-08-20T05:38:29.948Z,101298.57
2018-08-20T05:41:00.072Z,101294.81
2018-08-20T05:43:30.202Z,101296.59
2018-08-20T05:46:00.388Z,101296.28
2018-08-20T05:48:30.877Z,101301.87
2018-08-20T05:51:01.123Z,101303.41
2018-08-20T05:53:31.402Z,101304.31
2018-08-20T05:56:01.584Z,101310.00
2018-08-20T05:58:31.707Z,101311.50
2018-08-20T06:01:01.900Z,101309.80
2018-08-20T06:03:32.105Z,101317.23
2018-08-20T06:06:02.430Z,101317.95
2018-08-20T06:08:32.562Z,101321.64
2018-08-20T06:11:02.685Z,101321.38
2018-08-20T06:13:32.929Z,101328.92
2018-08-20T06:16:03.110Z,101332.68
2018-08-20T06:18:33.399Z,101335.39
2018-08-20T06:21:03.531Z,101342.67
2018-08-20T06:23:33.743Z,101344.77
2018-08-20T06:26:04.011Z,101346.13
2018-08-20T06:28:34.286Z,101344.08
2018-08-20T06:31:04.509Z,101343.80
2018-08-20T06:33:34.796Z,101349.42
2018-08-20T06:36:05.055Z,101349.78
2018-08-20T06:38:35.194Z,101351.63
2018-08-20T06:41:05.674Z,101357.97
2018-08-20T06:43:35.822Z,101361.33
2018-08-20T06:46:06.160Z,101365.29
2018-08-20T06:48:36.389Z,101357.62
2018-08-20T06:51:06.663Z,101359.61
2018-08-20T06:53:36.858Z,101362.19
2018-08-20T06:56:07.135Z,101360.48
2018-08-20T06:58:37.268Z,101364.73
2018-08-20T07:01:07.511Z,101363.27
2018-08-20T07:03:37.713Z,101368.70
2018-08-20T07:06:08.094Z,101366.95
2018-08-20T07:08:38.299Z,101364.61
2018-08-20T07:11:08.529Z,101371.54
2018-08-20T07:13:38.952Z,101367.59
2018-08-20T07:16:10.160Z,101368.63
2018-08-20T07:18:40.269Z,101371.89
2018-08-20T07:21:10.400Z,101371.33
2018-08-20T07:23:40.661Z,101376.36
2018-08-20T07:26:10.841Z,101380.27
2018-08-20T07:28:40.989Z,101379.20
2018-08-20T07:31:11.275Z,101385.20
2018-08-20T07:33:41.482Z,101388.45
2018-08-20T07:36:11.760Z,101385.72
2018-08-20T07:38:41.861Z,101387.70
2018-08-20T07:41:12.026Z,101390.64
2018-08-20T07:43:42.397Z,101390.13
2018-08-20T07:46:12.576Z,101387.70
2018-08-20T07:48:42.893Z,101391.98
2018-08-20T07:51:13.101Z,101390.32
2018-08-20T07:53:43.498Z,101398.26
2018-08-20T07:56:13.959Z,101396.69
2018-08-20T07:58:44.494Z,101403.88
2018-08-20T08:01:14.984Z,101400.46
2018-08-20T08:03:45.240Z,101406.87
2018-08-20T08:06:15.550Z,101408.47
2018-08-20T08:08:46.232Z,101405.95
2018-08-20T08:11:17.348Z,101408.73
2018-08-20T08:13:47.850Z,101422.63
2018-08-20T08:16:18.159Z,101416.71
2018-08-20T08:18:48.386Z,101418.95
2018-08-20T08:21:18.570Z,101412.52
2018-08-20T08:23:48.831Z,101420.56
2018-08-20T08:26:19.050Z,101419.96
2018-08-20T08:28:49.256Z,101417.17
2018-08-20T08:31:19.466Z,101420.95
2018-08-20T08:33:49.843Z,101418.77
2018-08-20T08:36:20.954Z,101422.80
2018-08-20T08:38:51.328Z,101420.16
2018-08-20T08:41:21.487Z,101425.95
2018-08-20T08:43:51.711Z,101423.19
2018-08-20T08:46:21.924Z,101430.85
2018-08-20T08:48:52.187Z,101425.14
2018-08-20T08:51:22.322Z,101432.33
2018-08-20T08:53:52.453Z,101433.21
2018-08-20T08:56:22.654Z,101432.56
2018-08-20T08:58:52.953Z,101435.37
2018-08-20T09:01:23.050Z,101434.91
2018-08-20T09:03:53.170Z,101437.09
2018-08-20T09:06:23.310Z,101439.41
2018-08-20T09:08:53.744Z,101440.98
2018-08-20T09:11:23.830Z,101440.43
2018-08-20T09:13:53.971Z,101444.08
2018-08-20T09:16:24.189Z,101442.86
2018-08-20T09:18:54.416Z,101445.90
2018-08-20T09:21:25.783Z,101446.84
2018-08-20T09:23:55.902Z,101444.56
2018-08-20T09:26:26.097Z,101445.03
2018-08-20T09:28:56.288Z,101440.19
2018-08-20T09:31:26.901Z,101449.91
2018-08-20T09:33:57.251Z,101438.60
2018-08-20T09:36:27.408Z,101440.61
2018-08-20T09:38:57.610Z,101440.70
2018-08-20T09:41:27.703Z,101441.15
2018-08-20T09:43:57.792Z,101437.00
2018-08-20T09:46:27.979Z,101446.03
2018-08-20T09:48:58.106Z,101445.72
2018-08-20T09:51:28.332Z,101438.17
2018-08-20T09:53:58.701Z,101441.42
2018-08-20T09:56:28.897Z,101438.70
2018-08-20T09:58:59.378Z,101426.63
2018-08-20T10:01:29.737Z,101431.66
2018-08-20T10:03:59.970Z,101429.12
2018-08-20T10:06:30.154Z,101424.22
2018-08-20T10:09:00.354Z,101423.69
2018-08-20T10:11:30.663Z,101423.23
2018-08-20T10:14:00.768Z,101423.16
2018-08-20T10:16:30.896Z,101417.41
2018-08-20T10:19:01.069Z,101422.58
2018-08-20T10:21:31.377Z,101419.08
2018-08-20T10:24:01.559Z,101415.25
2018-08-20T10:26:31.724Z,101414.38
2018-08-20T10:29:01.870Z,101414.94
2018-08-20T10:31:31.984Z,101411.34
2018-08-20T10:34:02.117Z,101404.94
2018-08-20T10:36:32.249Z,101416.69
2018-08-20T10:39:02.366Z,101411.76
2018-08-20T10:41:32.448Z,101413.77
2018-08-20T10:44:02.602Z,101416.23
2018-08-20T10:46:32.768Z,101418.87
2018-08-20T10:49:02.869Z,101416.36
2018-08-20T10:51:33.050Z,101415.67
2018-08-20T10:54:03.151Z,101411.45
2018-08-20T10:56:33.237Z,101408.72
2018-08-20T10:59:03.488Z,101411.56
2018-08-20T11:01:33.636Z,101416.66
2018-08-20T11:04:03.932Z,101413.02
2018-08-20T11:06:34.050Z,101412.21
2018-08-20T11:09:05.434Z,101419.19
2018-08-20T11:11:35.598Z,101414.80
2018-08-20T11:14:05.744Z,101416.91
2018-08-20T11:16:35.975Z,101417.13
2018-08-20T11:19:06.215Z,101418.41
2018-08-20T11:21:36.432Z,101417.31
2018-08-20T11:24:06.641Z,101421.37
2018-08-20T11:26:36.807Z,101427.52
2018-08-20T11:29:06.930Z,101428.26
2018-08-20T11:31:37.131Z,101432.61
2018-08-20T11:34:07.396Z,101436.38
2018-08-20T11:36:37.589Z,101436.50
2018-08-20T11:39:09.038Z,101439.17
2018-08-20T11:41:39.210Z,101437.71
2018-08-20T11:44:09.446Z,101449.55
2018-08-20T11:46:39.577Z,101448.92
2018-08-20T11:49:09.707Z,101447.59
2018-08-20T11:51:39.847Z,101452.44
2018-08-20T11:54:09.918Z,101448.22
2018-08-20T11:56:40.075Z,101439.65
2018-08-20T11:59:10.330Z,101437.91
2018-08-20T12:01:40.513Z,101437.33
2018-08-20T12:04:10.660Z,101438.16
2018-08-20T12:06:40.838Z,101442.80
2018-08-20T12:09:11.006Z,101431.16
2018-08-20T12:11:41.239Z,101434.97
2018-08-20T12:14:11.423Z,101434.92
2018-08-20T12:16:41.602Z,101434.80
2018-08-20T12:19:12.104Z,101440.09
2018-08-20T12:21:42.336Z,101434.13
2018-08-20T12:24:12.524Z,101433.97
2018-08-20T12:26:42.686Z,101434.09
2018-08-20T12:29:12.781Z,101432.47
2018-08-20T12:31:42.944Z,101433.52
2018-08-20T12:34:13.036Z,101431.00
2018-08-20T12:36:43.298Z,101421.86
2018-08-20T12:39:13.419Z,101428.76
2018-08-20T12:41:43.620Z,101423.50
2018-08-20T12:44:13.736Z,101427.72
2018-08-20T12:46:43.984Z,101424.52
2018-08-20T12:49:14.092Z,101424.35
2018-08-20T12:51:44.403Z,101419.76
2018-08-20T12:54:14.470Z,101422.34
2018-08-20T12:56:44.706Z,101424.34
2018-08-20T12:59:14.902Z,101423.90
2018-08-20T13:01:45.042Z,101420.30
2018-08-20T13:04:15.206Z,101417.03
2018-08-20T13:06:45.375Z,101411.09
2018-08-20T13:09:15.497Z,101411.64
2018-08-20T13:11:45.696Z,101413.82
2018-08-20T13:14:15.826Z,101410.79
2018-08-20T13:16:46.035Z,101411.27
2018-08-20T13:19:16.143Z,101408.28
2018-08-20T13:21:46.330Z,101413.32
2018-08-20T13:24:16.529Z,101413.48
2018-08-20T13:26:46.846Z,101408.73
2018-08-20T13:29:16.989Z,101417.96
2018-08-20T13:31:47.231Z,101422.99
2018-08-20T13:34:17.354Z,101419.49
2018-08-20T13:36:48.387Z,101418.69
2018-08-20T13:39:18.510Z,101418.33
2018-08-20T13:41:48.730Z,101412.84
2018-08-20T13:44:18.997Z,101418.49
2018-08-20T13:46:49.222Z,101413.70
2018-08-20T13:49:19.571Z,101415.67
2018-08-20T13:51:49.757Z,101407.81
2018-08-20T13:54:19.841Z,101408.69
2018-08-20T13:56:50.063Z,101411.01
2018-08-20T13:59:20.128Z,101407.59
2018-08-20T14:01:50.266Z,101410.98
2018-08-20T14:04:20.451Z,101411.20
2018-08-20T14:06:50.672Z,101409.36
2018-08-20T14:09:20.746Z,101411.61
2018-08-20T14:11:50.875Z,101405.86
2018-08-20T14:14:20.942Z,101405.02
2018-08-20T14:16:51.068Z,101406.56
2018-08-20T14:19:21.243Z,101406.83
2018-08-20T14:21:51.351Z,101408.48
2018-08-20T14:24:21.390Z,101394.61
2018-08-20T14:26:51.550Z,101394.58
2018-08-20T14:29:21.684Z,101402.00
2018-08-20T14:31:51.873Z,101405.34
2018-08-20T14:34:21.940Z,101401.12
2018-08-20T14:36:52.164Z,101404.38
2018-08-20T14:39:22.412Z,101407.38
2018-08-20T14:41:52.680Z,101414.19
2018-08-20T14:44:22.859Z,101401.22
2018-08-20T14:46:53.134Z,101395.53
2018-08-20T14:49:23.185Z,101398.10
2018-08-20T14:51:53.427Z,101394.77
2018-08-20T14:54:23.669Z,101394.05
2018-08-20T14:56:53.835Z,101392.41
2018-08-20T14:59:23.980Z,101394.98
2018-08-20T15:01:54.187Z,101391.72
2018-08-20T15:04:24.322Z,101395.31
2018-08-20T15:07:06.941Z,101392.61
2018-08-20T15:09:37.173Z,101392.10
2018-08-20T15:12:07.455Z,101387.27
2018-08-20T15:14:37.597Z,101387.87
2018-08-20T15:17:07.776Z,101389.98
2018-08-20T15:19:38.069Z,101392.98
2018-08-20T15:22:08.331Z,101387.98
2018-08-20T15:24:38.399Z,101387.83
2018-08-20T15:27:08.742Z,101387.25
2018-08-20T15:29:39.008Z,101394.11
2018-08-20T15:32:09.243Z,101394.58
2018-08-20T15:34:39.486Z,101392.61
2018-08-20T15:37:09.796Z,101386.05
2018-08-20T15:39:40.072Z,101386.31
2018-08-20T15:42:10.292Z,101388.97
2018-08-20T15:44:40.382Z,101386.84
2018-08-20T15:47:10.621Z,101381.03
2018-08-20T15:49:40.740Z,101384.11
2018-08-20T15:52:11.023Z,101380.31
2018-08-20T15:54:41.162Z,101376.19
2018-08-20T15:57:11.347Z,101379.37
2018-08-20T15:59:41.472Z,101373.07
2018-08-20T16:02:11.681Z,101381.78
2018-08-20T16:04:41.831Z,101378.31
2018-08-20T16:07:12.057Z,101387.66
2018-08-20T16:09:42.159Z,101387.04
2018-08-20T16:12:12.307Z,101390.59
2018-08-20T16:14:42.424Z,101397.45
2018-08-20T16:17:12.557Z,101397.41
2018-08-20T16:19:42.687Z,101397.72
2018-08-20T16:22:12.849Z,101385.88
2018-08-20T16:24:43.035Z,101387.53
2018-08-20T16:27:13.169Z,101388.67
2018-08-20T16:29:43.262Z,101381.20
2018-08-20T16:32:13.369Z,101391.02
2018-08-20T16:34:43.431Z,101393.55
2018-08-20T16:37:13.606Z,101394.13
2018-08-20T16:39:43.838Z,101391.53
2018-08-20T16:42:13.955Z,101389.75
2018-08-20T16:44:44.126Z,101386.88
2018-08-20T16:47:14.332Z,101388.08
2018-08-20T16:49:44.436Z,101386.39
2018-08-20T16:52:14.666Z,101387.17
2018-08-20T16:54:44.830Z,101385.77
2018-08-20T16:57:15.020Z,101388.24
2018-08-20T16:59:45.175Z,101391.23
2018-08-20T17:02:20.619Z,101386.88
2018-08-20T17:04:50.747Z,101388.10
2018-08-20T17:07:20.866Z,101395.31
2018-08-20T17:09:51.011Z,101401.66
2018-08-20T17:12:21.158Z,101390.17
2018-08-20T17:14:51.300Z,101400.84
2018-08-20T17:17:21.400Z,101394.75
2018-08-20T17:19:51.498Z,101393.06
2018-08-20T17:22:21.743Z,101398.19
2018-08-20T17:24:57.347Z,101398.12
2018-08-20T17:27:27.463Z,101399.69
2018-08-20T17:29:57.669Z,101392.91
2018-08-20T17:32:27.897Z,101393.51
2018-08-20T17:34:57.993Z,101391.52
2018-08-20T17:37:28.146Z,101391.23
2018-08-20T17:40:14.068Z,101389.79
2018-08-20T17:42:44.160Z,101390.49
2018-08-20T17:45:14.430Z,101390.80
2018-08-20T17:47:44.610Z,101395.67
2018-08-20T17:50:31.441Z,101392.24
2018-08-20T17:53:01.600Z,101395.05
2018-08-20T17:55:31.691Z,101399.31
2018-08-20T17:58:01.872Z,101404.57
2018-08-20T18:01:06.014Z,101404.64
2018-08-20T18:03:37.175Z,101409.28
2018-08-20T18:06:08.485Z,101412.41
2018-08-20T18:08:38.743Z,101411.72
2018-08-20T18:11:09.488Z,101413.22
2018-08-20T18:13:45.406Z,101410.83
2018-08-20T18:16:16.593Z,101416.55
2018-08-20T18:18:49.015Z,101422.43
2018-08-20T18:21:19.490Z,101409.22
2018-08-20T18:23:49.628Z,101420.13
2018-08-20T18:26:19.837Z,101409.83
2018-08-20T18:28:53.768Z,101414.09
2018-08-20T18:31:26.314Z,101424.63
2018-08-20T18:33:56.688Z,101430.37
2018-08-20T18:36:30.293Z,101429.44
2018-08-20T18:39:09.884Z,101435.19
2018-08-20T18:42:14.659Z,101438.28
2018-08-20T18:44:45.238Z,101439.15
2018-08-20T18:47:17.538Z,101443.79
2018-08-20T18:49:54.241Z,101446.13
2018-08-20T18:52:25.729Z,101449.91
2018-08-20T18:54:57.263Z,101448.70
2018-08-20T18:57:30.020Z,101454.31
2018-08-20T19:00:01.859Z,101457.13
2018-08-20T19:02:59.975Z,101459.31
2018-08-20T19:05:38.855Z,101457.59
2018-08-20T19:08:13.572Z,101460.28
2018-08-20T19:10:43.770Z,101463.08
2018-08-20T19:13:13.956Z,101461.73
2018-08-20T19:15:46.205Z,101466.52
2018-08-20T19:18:24.854Z,101473.11
2018-08-20T19:20:55.055Z,101470.17
2018-08-20T19:23:25.493Z,101469.79
2018-08-20T19:25:55.680Z,101472.02
2018-08-20T19:28:26.174Z,101475.31
2018-08-20T19:30:57.141Z,101469.80
2018-08-20T19:33:28.822Z,101470.42
2018-08-20T19:35:59.321Z,101475.66
2018-08-20T19:38:29.427Z,101476.27
2018-08-20T19:41:05.733Z,101471.98
2018-08-20T19:43:41.108Z,101479.46
2018-08-20T19:46:11.313Z,101480.78
2018-08-20T19:48:41.396Z,101482.02
2018-08-20T19:51:11.758Z,101483.09
2018-08-20T19:53:41.983Z,101483.36
2018-08-20T19:56:14.650Z,101483.23
2018-08-20T19:58:45.475Z,101484.92
2018-08-20T20:01:18.508Z,101478.32
2018-08-20T20:03:50.214Z,101479.66
2018-08-20T20:06:20.475Z,101483.20
2018-08-20T20:11:34.462Z,101482.59
2018-08-20T20:14:04.721Z,101486.76
2018-08-20T20:16:40.592Z,101486.72
2018-08-20T20:19:11.309Z,101486.48
2018-08-20T20:21:41.510Z,101483.94
2018-08-20T20:24:12.458Z,101488.52
2018-08-20T20:26:42.765Z,101490.36
2018-08-20T20:29:13.049Z,101487.66
2018-08-20T20:31:43.865Z,101488.42
2018-08-20T20:34:14.120Z,101487.08
2018-08-20T20:36:44.265Z,101489.59
2018-08-20T20:39:14.536Z,101490.10
2018-08-20T20:41:44.692Z,101495.45
2018-08-20T20:44:14.969Z,101492.62
2018-08-20T20:46:45.187Z,101502.92
2018-08-20T20:49:15.445Z,101503.34
2018-08-20T20:51:45.741Z,101497.71
2018-08-20T20:54:15.825Z,101500.91
2018-08-20T20:56:46.094Z,101502.16
2018-08-20T20:59:16.199Z,101500.97
2018-08-20T21:01:46.379Z,101506.12
2018-08-20T21:04:16.454Z,101506.05
2018-08-20T21:06:46.546Z,101513.93
2018-08-20T21:09:16.646Z,101513.67
2018-08-20T21:11:46.772Z,101512.56
2018-08-20T21:14:16.838Z,101513.97
2018-08-20T21:16:47.030Z,101506.09
2018-08-20T21:19:17.334Z,101514.26
2018-08-20T21:21:47.486Z,101518.31
2018-08-20T21:24:17.683Z,101514.94
2018-08-20T21:26:48.138Z,101515.27
2018-08-20T21:29:18.250Z,101522.98
2018-08-20T21:31:52.564Z,101523.89
2018-08-20T21:34:26.512Z,101525.30
2018-08-20T21:36:56.718Z,101525.19
2018-08-20T21:39:26.804Z,101522.61
2018-08-20T21:41:57.050Z,101527.43
2018-08-20T21:44:27.160Z,101528.09
2018-08-20T21:46:57.218Z,101525.07
2018-08-20T21:49:27.281Z,101528.50
2018-08-20T21:51:59.323Z,101532.59
2018-08-20T21:54:34.407Z,101530.90
2018-08-20T21:57:04.550Z,101534.77
2018-08-20T21:59:34.814Z,101533.98
2018-08-20T22:02:05.012Z,101535.44
2018-08-20T22:04:35.170Z,101540.62
2018-08-20T22:07:05.379Z,101538.55
2018-08-20T22:09:35.456Z,101535.34
2018-08-20T22:12:05.648Z,101543.20
2018-08-20T22:14:35.721Z,101543.77
2018-08-20T22:17:06.263Z,101545.08
2018-08-20T22:19:36.422Z,101544.50
2018-08-20T22:22:06.999Z,101547.17
2018-08-20T22:24:38.282Z,101543.20
2018-08-20T22:27:08.644Z,101546.66
2018-08-20T22:29:43.863Z,101545.34
2018-08-20T22:32:14.003Z,101543.70
2018-08-20T22:34:44.158Z,101552.29
2018-08-20T22:37:14.569Z,101545.13
2018-08-20T22:39:46.987Z,101544.77
2018-08-20T22:42:17.194Z,101542.01
2018-08-20T22:44:47.306Z,101538.29
2018-08-20T22:47:17.511Z,101547.79
2018-08-20T22:49:47.658Z,101546.28
2018-08-20T22:52:21.856Z,101541.14
2018-08-20T22:54:51.976Z,101539.52
2018-08-20T22:57:22.334Z,101547.72
2018-08-20T22:59:52.470Z,101542.96
2018-08-20T23:02:22.603Z,101543.81
2018-08-20T23:04:57.734Z,101541.12
2018-08-20T23:07:28.089Z,101542.37
2018-08-20T23:09:58.270Z,101545.33
2018-08-20T23:12:33.168Z,101542.09
2018-08-20T23:15:03.562Z,101547.05
2018-08-20T23:17:33.751Z,101544.88
2018-08-20T23:20:05.192Z,101550.95
2018-08-20T23:22:35.376Z,101555.87
2018-08-20T23:25:05.507Z,101557.98
2018-08-20T23:27:39.802Z,101553.52
2018-08-20T23:30:11.500Z,101550.50
2018-08-20T23:32:41.664Z,101553.91
2018-08-20T23:35:11.929Z,101555.44
2018-08-20T23:37:42.166Z,101559.84
2018-08-20T23:40:12.370Z,101557.80
2018-08-20T23:42:42.489Z,101556.77
2018-08-20T23:45:12.857Z,101555.98
2018-08-20T23:47:42.915Z,101556.52
2018-08-20T23:50:13.048Z,101553.39
2018-08-20T23:52:43.244Z,101559.52
2018-08-20T23:55:13.412Z,101552.19
2018-08-20T23:57:43.785Z,101559.61
